Latest Coastal Weather Observations for Kiama

IDN60701

Issued at 1:32 am EST Tuesday 27 September 2016 (issued every 10 minutes, with the page automatically refreshed every 10 minutes)

About coastal observations | Map of coastal stations | Coastal observations for NSW | Marine services | Other Formats
Station Details ID: 068242 Name: KIAMA (BOMBO HEADLAND) Lat: -34.65 Lon: 150.86 Height: 15.5 m
Data from the previous 72 hours. | See also: Recent months at Kiama
Date/Time
EST
Temp
°C
Wind Pressure Rain since
9am
mm
Weather Cloud Vis
km
Sea
Height
m
Swell
Dir  Spd
kts
Gust
kts
hPa Trend Height
m
Period
s
Dir
27/01:30am 13.5 NW 6 10 - - 0.0 - - - - - - -
27/01:00am 13.3 NW 6 9 - - 0.0 - - - - - - -
27/12:30am 13.5 NW 7 11 - - 0.0 - - - - - - -
27/12:00am 13.6 WNW 8 11 - - 0.0 - - - - - - -
 
Date/Time
EST
Temp
°C
Wind Pressure Rain since
9am
mm
Weather Cloud Vis
km
Sea
Height
m
Swell
Dir  Spd
kts
Gust
kts
hPa Trend Height
m
Period
s
Dir
26/11:30pm 14.1 WSW 13 17 - - 0.0 - - - - - - -
26/11:00pm 13.8 W 8 12 - - 0.0 - - - - - - -
26/10:30pm 14.1 WSW 11 16 - - 0.0 - - - - - - -
26/10:00pm 14.0 W 12 20 - - 0.0 - - - - - - -
26/09:30pm 14.0 W 9 14 - - 0.0 - - - - - - -
26/09:00pm 14.1 W 10 17 - - 0.0 - - - - - - -
26/08:30pm 14.4 W 12 18 - - 0.0 - - - - - - -
26/08:00pm 14.3 W 8 13 - - 0.0 - - - - - - -
26/07:30pm 14.6 WSW 8 10 - - 0.0 - - - - - - -
26/07:00pm 14.8 W 7 10 - - 0.0 - - - - - - -
26/06:30pm 14.6 W 5 9 - - 0.0 - - - - - - -
26/06:00pm 15.5 WNW 5 9 - - 0.0 - - - - - - -
26/05:30pm 16.5 WNW 7 13 - - 0.0 - - - - - - -
26/05:00pm 17.5 W 6 11 - - 0.0 - - - - - - -
26/04:30pm 16.7 S 4 6 - - 0.0 - - - - - - -
26/04:00pm 16.6 S 5 8 - - 0.0 - - - - - - -
26/03:30pm 16.9 SSE 6 7 - - 0.0 - - - - - - -
26/03:00pm 17.1 E 3 6 - - 0.0 - - - - - - -
26/02:30pm 17.1 E 4 6 - - 0.0 - - - - - - -
26/02:00pm 17.4 SE 6 9 - - 0.0 - - - - - - -
26/01:30pm 17.3 SE 8 12 - - 0.0 - - - - - - -
26/01:00pm 17.3 SE 8 11 - - 0.0 - - - - - - -
26/12:30pm 16.8 SE 11 13 - - 0.0 - - - - - - -
26/12:00pm 16.5 SSE 12 14 - - 0.0 - - - - - - -
26/11:30am 16.3 SSE 12 14 - - 0.0 - - - - - - -
26/11:00am 16.9 SSW 8 12 - - 0.0 - - - - - - -
26/10:30am 16.7 SW 10 14 - - 0.0 - - - - - - -
26/10:00am 16.1 SW 9 12 - - 0.0 - - - - - - -
26/09:30am 15.8 WSW 10 15 - - 0.0 - - - - - - -
26/09:00am 15.4 SW 9 14 - - 7.0 - - - - - - -
26/08:30am 14.9 WSW 8 11 - - 7.0 - - - - - - -
26/08:00am 13.7 W 6 9 - - 7.0 - - - - - - -
26/07:30am 13.0 W 5 8 - - 7.0 - - - - - - -
26/07:00am 11.9 W 5 8 - - 7.0 - - - - - - -
26/06:30am 11.1 W 5 8 - - 7.0 - - - - - - -
26/06:00am 10.6 WNW 5 7 - - 7.0 - - - - - - -
26/05:30am 11.0 WNW 8 13 - - 7.0 - - - - - - -
26/05:00am 10.8 WNW 4 7 - - 7.0 - - - - - - -
26/04:30am 11.6 WSW 2 5 - - 7.0 - - - - - - -
26/04:00am 12.5 SW 2 4 - - 7.0 - - - - - - -
26/03:30am 12.9 SW 5 7 - - 7.0 - - - - - - -
26/03:00am 12.9 WSW 8 11 - - 7.0 - - - - - - -
26/02:30am 13.1 SW 8 12 - - 7.0 - - - - - - -
26/02:00am 13.0 WSW 6 14 - - 7.0 - - - - - - -
26/01:30am 13.2 SW 6 8 - - 7.0 - - - - - - -
26/01:00am 13.0 SW 6 9 - - 7.0 - - - - - - -
26/12:30am 13.3 SW 7 11 - - 7.0 - - - - - - -
26/12:00am 13.2 SW 9 14 - - 7.0 - - - - - - -
 
Date/Time
EST
Temp
°C
Wind Pressure Rain since
9am
mm
Weather Cloud Vis
km
Sea
Height
m
Swell
Dir  Spd
kts
Gust
kts
hPa Trend Height
m
Period
s
Dir
25/11:30pm 13.4 SW 9 15 - - 7.0 - - - - - - -
25/11:00pm 13.6 SW 10 13 - - 7.0 - - - - - - -
25/10:30pm 13.9 SSW 10 14 - - 6.8 - - - - - - -
25/10:00pm 13.9 SW 10 12 - - 6.8 - - - - - - -
25/09:30pm 14.0 SW 8 11 - - 6.4 - - - - - - -
25/09:00pm 14.1 SW 9 12 - - 5.8 Recent precip. - - - - - -
25/08:30pm 14.3 SW 7 9 - - 5.8 - - - - - - -
25/08:00pm 14.8 SSW 10 13 - - 5.4 - - - - - - -
25/07:30pm 14.9 SW 7 10 - - 5.4 - - - - - - -
25/07:00pm 15.0 SW 9 11 - - 5.4 - - - - - - -
25/06:30pm 14.8 SW 9 14 - - 5.4 - - - - - - -
25/06:00pm 14.7 SW 6 8 - - 5.4 Recent precip. - - - - - -
25/05:30pm 14.6 WSW 6 9 - - 5.4 - - - - - - -
25/05:00pm 15.1 SSW 9 12 - - 4.4 - - - - - - -
25/04:30pm 14.9 SW 7 9 - - 3.0 - - - - - - -
25/04:00pm 15.8 SSW 15 18 - - 1.6 - - - - - - -
25/03:30pm 17.0 S 15 20 - - 1.4 - - - - - - -
25/03:00pm 17.8 S 15 20 - - 1.2 - - - - - - -
25/02:30pm 18.3 S 13 18 - - 1.2 - - - - - - -
25/02:00pm 18.7 S 13 17 - - 1.2 - - - - - - -
25/01:30pm 18.0 S 10 13 - - 1.2 - - - - - - -
25/01:00pm 18.0 S 11 14 - - 1.2 - - - - - - -
25/12:30pm 18.1 S 10 17 - - 1.0 - - - - - - -
25/12:00pm 19.2 SSE 14 17 - - 0.0 - - - - - - -
25/11:30am 20.8 SW 7 12 - - 0.0 - - - - - - -
25/11:00am 20.2 S 1 3 - - 0.0 - - - - - - -
25/10:30am 19.8 ENE 3 5 - - 0.0 - - - - - - -
25/10:00am 19.5 E 4 6 - - 0.0 - - - - - - -
25/09:30am 18.6 S 3 7 - - 0.0 - - - - - - -
25/09:00am 19.9 W 4 7 - - 0.4 - - - - - - -
25/08:30am 19.3 W 4 8 - - 0.4 - - - - - - -
25/08:00am 17.9 S 2 6 - - 0.4 - - - - - - -
25/07:30am 16.5 SSE 1 3 - - 0.4 - - - - - - -
25/07:00am 16.6 NNW 3 4 - - 0.4 - - - - - - -
25/06:30am 15.7 W 2 3 - - 0.4 - - - - - - -
25/06:00am 15.1 WSW 3 4 - - 0.4 - - - - - - -
25/05:30am 15.2 NNW 3 4 - - 0.4 - - - - - - -
25/05:00am 15.4 N 1 3 - - 0.4 - - - - - - -
25/04:30am 15.5 N 5 7 - - 0.4 - - - - - - -
25/04:00am 15.3 W 1 3 - - 0.4 - - - - - - -
25/03:30am 15.3 WSW 3 4 - - 0.4 - - - - - - -
25/03:00am 15.2 W 4 6 - - 0.4 - - - - - - -
25/02:30am 15.1 WSW 2 3 - - 0.4 - - - - - - -
25/02:00am 15.5 WSW 5 6 - - 0.4 - - - - - - -
25/01:30am 15.0 W 5 6 - - 0.4 - - - - - - -
25/01:00am 15.3 W 5 7 - - 0.4 - - - - - - -
25/12:30am 15.3 W 5 6 - - 0.4 - - - - - - -
25/12:00am 15.6 W 5 6 - - 0.4 - - - - - - -
 
Date/Time
EST
Temp
°C
Wind Pressure Rain since
9am
mm
Weather Cloud Vis
km
Sea
Height
m
Swell
Dir  Spd
kts
Gust
kts
hPa Trend Height
m
Period
s
Dir
24/11:30pm 15.6 W 5 6 - - 0.4 - - - - - - -
24/11:00pm 15.6 W 4 6 - - 0.4 - - - - - - -
24/10:30pm 16.4 W 6 8 - - 0.0 - - - - - - -
24/10:00pm 16.9 WNW 3 4 - - 0.0 - - - - - - -
24/09:30pm 16.9 NW 4 5 - - 0.0 - - - - - - -
24/09:00pm 16.4 W 4 5 - - 0.0 - - - - - - -
24/08:30pm 16.5 W 4 6 - - 0.0 - - - - - - -
24/08:00pm 16.9 WNW 5 8 - - 0.0 - - - - - - -
24/07:30pm 17.1 WNW 4 6 - - 0.0 - - - - - - -
24/07:00pm 17.4 NNW 4 6 - - 0.0 - - - - - - -
24/06:30pm 17.2 NNW 4 5 - - 0.0 - - - - - - -
24/06:00pm 17.5 NNW 4 8 - - 0.0 - - - - - - -
24/05:30pm 17.7 N 5 7 - - 0.0 - - - - - - -
24/05:00pm 18.2 NNE 5 7 - - 0.0 - - - - - - -
24/04:30pm 18.3 NNE 5 8 - - 0.0 - - - - - - -
24/04:00pm 18.8 NE 6 7 - - 0.0 - - - - - - -
24/03:30pm 18.9 NE 5 6 - - 0.0 - - - - - - -
24/03:00pm 19.7 NE 3 5 - - 0.0 - - - - - - -
24/02:30pm 19.9 ENE 4 6 - - 0.0 - - - - - - -
24/02:00pm 19.5 E 4 5 - - 0.0 - - - - - - -
24/01:30pm 19.1 ESE 4 6 - - 0.0 - - - - - - -
24/01:00pm 19.2 SE 5 6 - - 0.0 - - - - - - -
24/12:30pm 19.1 SE 5 6 - - 0.0 - - - - - - -
24/12:00pm 19.2 SE 6 7 - - 0.0 - - - - - - -
24/11:30am 19.1 SE 7 8 - - 0.0 - - - - - - -
24/11:00am 19.2 SE 8 9 - - 0.0 - - - - - - -
24/10:30am 18.9 SSE 7 8 - - 0.0 - - - - - - -
24/10:00am 18.4 SSE 8 9 - - 0.0 - - - - - - -
24/09:30am 17.9 S 10 13 - - 0.0 - - - - - - -
24/09:00am 17.6 S 9 12 - - 0.0 - - - - - - -
24/08:30am 17.5 S 9 13 - - 0.0 - - - - - - -
24/08:00am 17.2 S 8 11 - - 0.0 - - - - - - -
24/07:30am 17.1 W 1 3 - - 0.0 - - - - - - -
24/07:00am 16.0 W 3 7 - - 0.0 - - - - - - -
24/06:30am 15.4 WSW 5 9 - - 0.0 - - - - - - -
24/06:00am 15.1 SW 5 11 - - 0.0 - - - - - - -
24/05:30am 15.0 SW 10 16 - - 0.0 - - - - - - -
24/05:00am 15.3 SSW 10 14 - - 0.0 - - - - - - -
24/04:30am 15.3 SSW 9 14 - - 0.0 - - - - - - -
24/04:00am 15.3 SSW 7 9 - - 0.0 - - - - - - -
24/03:30am 15.6 SSW 9 13 - - 0.0 - - - - - - -
24/03:00am 15.5 SW 10 13 - - 0.0 - - - - - - -
24/02:30am 15.5 SW 11 13 - - 0.0 - - - - - - -
24/02:00am 15.5 SW 10 12 - - 0.0 - - - - - - -

Other Formats:

Comma delimited format used in spreadsheet applications
http://www.bom.gov.au/fwo/IDN60701/IDN60701.95749.axf

JavaScript Object Notation format (JSON) in row-major order
http://www.bom.gov.au/fwo/IDN60701/IDN60701.95749.json